createdAt,value
2023-02-15T00:02:26.452Z,11.05
2023-02-15T00:04:54.619Z,11.15
2023-02-15T00:07:21.328Z,11.52
2023-02-15T00:09:48.406Z,11.50
2023-02-15T00:12:15.785Z,13.67
2023-02-15T00:14:43.217Z,11.57
2023-02-15T00:17:10.114Z,11.23
2023-02-15T00:19:36.776Z,10.07
2023-02-15T00:22:03.509Z,10.15
2023-02-15T00:24:30.222Z,10.93
2023-02-15T00:26:56.813Z,9.55
2023-02-15T00:29:23.632Z,10.50
2023-02-15T00:31:50.880Z,9.88
2023-02-15T00:34:26.251Z,10.45
2023-02-15T00:36:53.141Z,10.13
2023-02-15T00:39:20.131Z,9.60
2023-02-15T00:41:47.809Z,9.73
2023-02-15T00:44:15.557Z,10.73
2023-02-15T00:46:42.679Z,9.52
2023-02-15T00:49:10.517Z,10.73
2023-02-15T00:51:38.369Z,8.75
2023-02-15T00:54:05.448Z,8.68
2023-02-15T00:56:32.383Z,9.55
2023-02-15T00:58:59.172Z,8.45
2023-02-15T01:01:26.891Z,7.97
2023-02-15T01:03:54.078Z,8.65
2023-02-15T01:06:20.993Z,9.27
2023-02-15T01:08:48.680Z,7.93
2023-02-15T01:11:22.966Z,8.38
2023-02-15T01:13:57.108Z,7.87
2023-02-15T01:16:26.118Z,8.55
2023-02-15T01:18:53.407Z,8.95
2023-02-15T01:21:22.262Z,8.55
2023-02-15T01:23:49.135Z,9.15
2023-02-15T01:26:16.829Z,9.30
2023-02-15T01:28:44.722Z,7.93
2023-02-15T01:31:14.649Z,9.65
2023-02-15T01:33:42.124Z,9.13
2023-02-15T01:36:10.192Z,9.55
2023-02-15T01:38:37.699Z,9.40
2023-02-15T01:41:21.435Z,8.15
2023-02-15T01:43:59.437Z,9.35
2023-02-15T01:46:39.373Z,8.75
2023-02-15T01:49:19.644Z,7.97
2023-02-15T01:51:49.750Z,9.90
2023-02-15T01:54:19.098Z,7.95
2023-02-15T01:56:46.077Z,9.52
2023-02-15T01:59:17.692Z,9.18
2023-02-15T02:01:45.587Z,10.90
2023-02-15T02:04:23.010Z,9.50
2023-02-15T02:06:51.798Z,9.75
2023-02-15T02:09:18.367Z,9.90
2023-02-15T02:11:48.082Z,8.57
2023-02-15T02:14:15.606Z,8.75
2023-02-15T02:16:51.649Z,8.67
2023-02-15T02:19:52.334Z,10.27
2023-02-15T02:22:22.752Z,8.90
2023-02-15T02:25:08.159Z,8.77
2023-02-15T02:27:42.576Z,8.35
2023-02-15T02:30:43.201Z,7.90
2023-02-15T02:33:40.530Z,8.07
2023-02-15T02:36:26.531Z,8.15
2023-02-15T02:39:31.807Z,6.80
2023-02-15T02:42:15.024Z,8.18
2023-02-15T02:44:47.813Z,7.40
2023-02-15T02:47:25.197Z,8.10
2023-02-15T02:50:04.925Z,7.28
2023-02-15T02:52:49.440Z,9.32
2023-02-15T02:55:31.672Z,7.78
2023-02-15T02:58:07.032Z,8.17
2023-02-15T03:00:40.085Z,8.43
2023-02-15T03:03:15.991Z,8.07
2023-02-15T03:05:48.826Z,8.85
2023-02-15T03:08:22.806Z,7.68
2023-02-15T03:10:53.750Z,6.50
2023-02-15T03:13:21.872Z,7.55
2023-02-15T03:16:10.594Z,7.90
2023-02-15T03:18:53.574Z,7.43
2023-02-15T03:21:31.202Z,8.13
2023-02-15T03:24:05.470Z,8.63
2023-02-15T03:26:35.198Z,7.38
2023-02-15T03:29:04.958Z,8.60
2023-02-15T03:31:34.451Z,8.15
2023-02-15T03:34:08.639Z,8.18
2023-02-15T03:36:47.371Z,7.53
2023-02-15T03:39:28.055Z,7.63
2023-02-15T03:42:19.305Z,8.43
2023-02-15T03:44:56.256Z,7.22
2023-02-15T03:47:31.196Z,7.30
2023-02-15T03:50:26.528Z,6.77
2023-02-15T03:52:55.307Z,6.25
2023-02-15T03:55:22.680Z,6.90
2023-02-15T03:58:08.329Z,7.45
2023-02-15T04:00:57.415Z,7.15
2023-02-15T04:03:24.127Z,6.77
2023-02-15T04:05:50.803Z,6.80
2023-02-15T04:08:17.421Z,6.78
2023-02-15T04:10:58.891Z,7.00
2023-02-15T04:13:33.516Z,6.90
2023-02-15T04:16:07.569Z,6.77
2023-02-15T04:19:01.160Z,7.35
2023-02-15T04:21:48.965Z,6.75
2023-02-15T04:24:34.596Z,6.70
2023-02-15T04:27:01.598Z,7.15
2023-02-15T04:29:29.198Z,6.60
2023-02-15T04:31:57.709Z,6.35
2023-02-15T04:34:24.606Z,6.97
2023-02-15T04:36:51.453Z,7.20
2023-02-15T04:39:19.283Z,7.35
2023-02-15T04:41:46.261Z,6.97
2023-02-15T04:44:13.025Z,7.13
2023-02-15T04:46:39.608Z,7.15
2023-02-15T04:49:06.531Z,6.60
2023-02-15T04:51:33.322Z,6.72
2023-02-15T04:53:59.892Z,6.43
2023-02-15T04:56:26.536Z,6.80
2023-02-15T04:58:53.109Z,6.78
2023-02-15T05:01:20.203Z,6.15
2023-02-15T05:03:46.782Z,6.05
2023-02-15T05:06:13.372Z,6.77
2023-02-15T05:08:39.972Z,6.75
2023-02-15T05:11:06.610Z,5.97
2023-02-15T05:13:33.293Z,6.85
2023-02-15T05:16:00.122Z,5.93
2023-02-15T05:18:27.090Z,7.13
2023-02-15T05:20:53.805Z,5.93
2023-02-15T05:23:20.386Z,6.05
2023-02-15T05:26:09.740Z,6.00
2023-02-15T05:28:38.486Z,7.88
2023-02-15T05:31:08.744Z,6.83
2023-02-15T05:33:35.533Z,6.25
2023-02-15T05:36:03.596Z,8.68
2023-02-15T05:38:31.148Z,6.63
2023-02-15T05:40:57.929Z,6.40
2023-02-15T05:43:25.335Z,6.40
2023-02-15T05:45:54.205Z,6.60
2023-02-15T05:48:23.516Z,7.03
2023-02-15T05:51:00.978Z,7.13
2023-02-15T05:53:29.462Z,7.55
2023-02-15T05:56:00.688Z,7.40
2023-02-15T05:58:28.123Z,6.22
2023-02-15T06:00:55.956Z,6.88
2023-02-15T06:03:24.100Z,6.22
2023-02-15T06:05:50.804Z,7.50
2023-02-15T06:08:17.539Z,6.37
2023-02-15T06:10:44.230Z,7.63
2023-02-15T06:13:10.848Z,6.55
2023-02-15T06:15:37.542Z,7.20
2023-02-15T06:18:04.307Z,6.30
2023-02-15T06:20:30.898Z,6.63
2023-02-15T06:22:57.514Z,7.28
2023-02-15T06:25:25.494Z,8.18
2023-02-15T06:27:52.207Z,7.78
2023-02-15T06:30:18.927Z,6.63
2023-02-15T06:32:45.638Z,6.53
2023-02-15T06:35:12.530Z,6.80
2023-02-15T06:37:39.700Z,7.10
2023-02-15T06:40:07.638Z,5.78
2023-02-15T06:42:34.354Z,5.78
2023-02-15T06:45:01.516Z,6.23
2023-02-15T06:47:28.224Z,6.88
2023-02-15T06:49:54.833Z,6.20
2023-02-15T06:52:21.609Z,6.68
2023-02-15T06:54:48.152Z,8.35
2023-02-15T06:57:14.779Z,5.83
2023-02-15T06:59:41.385Z,5.13
2023-02-15T07:02:10.039Z,6.35
2023-02-15T07:04:36.816Z,6.38
2023-02-15T07:07:03.686Z,6.80
2023-02-15T07:09:30.268Z,7.10
2023-02-15T07:12:15.361Z,6.82
2023-02-15T07:14:42.045Z,6.80
2023-02-15T07:17:18.342Z,6.80
2023-02-15T07:19:55.951Z,7.75
2023-02-15T07:22:22.510Z,6.97
2023-02-15T07:24:50.103Z,6.15
2023-02-15T07:27:16.946Z,6.93
2023-02-15T07:29:43.508Z,6.25
2023-02-15T07:32:10.152Z,6.95
2023-02-15T07:34:36.916Z,7.17
2023-02-15T07:37:03.498Z,5.68
2023-02-15T07:39:30.073Z,6.03
2023-02-15T07:42:01.134Z,6.20
2023-02-15T07:44:30.887Z,6.00
2023-02-15T07:46:57.500Z,5.80
2023-02-15T07:49:24.250Z,6.75
2023-02-15T07:51:50.939Z,6.40
2023-02-15T07:54:17.703Z,5.40
2023-02-15T07:56:44.356Z,5.35
2023-02-15T07:59:11.016Z,4.77
2023-02-15T08:01:39.503Z,4.70
2023-02-15T08:04:08.336Z,4.80
2023-02-15T08:06:37.066Z,5.20
2023-02-15T08:09:08.968Z,5.15
2023-02-15T08:11:37.657Z,4.87
2023-02-15T08:14:11.752Z,4.97
2023-02-15T08:16:46.675Z,5.20
2023-02-15T08:19:19.152Z,4.95
2023-02-15T08:21:48.956Z,4.30
2023-02-15T08:24:17.330Z,5.30
2023-02-15T08:26:45.998Z,5.20
2023-02-15T08:29:12.674Z,5.47
2023-02-15T08:31:42.065Z,5.70
2023-02-15T08:34:10.461Z,5.90
2023-02-15T08:36:37.094Z,5.77
2023-02-15T08:39:05.949Z,5.75
2023-02-15T08:41:35.507Z,5.93
2023-02-15T08:44:07.666Z,5.68
2023-02-15T08:46:36.849Z,6.45
2023-02-15T08:49:03.932Z,5.63
2023-02-15T08:51:33.604Z,6.50
2023-02-15T08:54:03.262Z,6.13
2023-02-15T08:56:34.093Z,5.63
2023-02-15T08:59:00.876Z,5.93
2023-02-15T09:01:30.555Z,5.40
2023-02-15T09:04:09.620Z,5.00
2023-02-15T09:06:40.586Z,5.95
2023-02-15T09:09:08.590Z,6.53
2023-02-15T09:11:43.494Z,5.45
2023-02-15T09:14:14.573Z,5.63
2023-02-15T09:16:43.535Z,5.38
2023-02-15T09:19:10.183Z,5.75
2023-02-15T09:21:38.924Z,6.70
2023-02-15T09:24:09.318Z,5.88
2023-02-15T09:26:41.502Z,5.30
2023-02-15T09:29:08.610Z,5.43
2023-02-15T09:31:42.215Z,5.55
2023-02-15T09:34:09.088Z,5.20
2023-02-15T09:36:38.305Z,5.25
2023-02-15T09:39:08.831Z,5.33
2023-02-15T09:41:56.899Z,6.32
2023-02-15T09:44:42.653Z,5.80
2023-02-15T09:47:19.325Z,18.15
2023-02-15T09:50:04.128Z,5.75
2023-02-15T09:52:48.914Z,5.23
2023-02-15T09:55:27.442Z,5.25
2023-02-15T09:58:08.009Z,5.50
2023-02-15T10:00:53.541Z,5.18
2023-02-15T10:03:43.252Z,4.78
2023-02-15T10:06:25.532Z,5.67
2023-02-15T10:08:55.955Z,5.45
2023-02-15T10:11:42.625Z,5.88
2023-02-15T10:14:30.017Z,5.75
2023-02-15T10:17:08.846Z,5.93
2023-02-15T10:20:08.971Z,5.60
2023-02-15T10:22:50.440Z,5.38
2023-02-15T10:25:27.589Z,4.65
2023-02-15T10:28:10.190Z,5.50
2023-02-15T10:30:51.545Z,5.35
2023-02-15T10:33:36.596Z,4.93
2023-02-15T10:36:41.734Z,4.55
2023-02-15T10:39:24.296Z,5.78
2023-02-15T10:42:07.950Z,5.13
2023-02-15T10:44:52.828Z,19.27
2023-02-15T10:47:37.593Z,5.63
2023-02-15T10:50:22.090Z,4.95
2023-02-15T10:53:14.800Z,5.25
2023-02-15T10:55:52.635Z,5.47
2023-02-15T10:58:22.159Z,5.68
2023-02-15T11:01:00.470Z,5.67
2023-02-15T11:03:52.888Z,5.50
2023-02-15T11:06:22.520Z,5.13
2023-02-15T11:08:55.244Z,5.30
2023-02-15T11:11:30.182Z,6.13
2023-02-15T11:14:24.741Z,4.23
2023-02-15T11:16:56.590Z,4.57
2023-02-15T11:19:29.624Z,5.25
2023-02-15T11:22:00.318Z,5.63
2023-02-15T11:24:29.693Z,5.25
2023-02-15T11:27:01.848Z,4.70
2023-02-15T11:29:39.745Z,5.60
2023-02-15T11:32:22.713Z,5.28
2023-02-15T11:35:10.771Z,5.25
2023-02-15T11:37:54.133Z,4.88
2023-02-15T11:40:20.722Z,6.23
2023-02-15T11:42:50.921Z,5.30
2023-02-15T11:45:35.280Z,5.72
2023-02-15T11:48:09.768Z,5.72
2023-02-15T11:50:37.567Z,5.60
2023-02-15T11:53:22.174Z,6.33
2023-02-15T11:55:51.935Z,5.95
2023-02-15T11:58:30.885Z,5.47
2023-02-15T12:01:08.836Z,6.00
2023-02-15T12:03:56.681Z,6.07
2023-02-15T12:06:29.589Z,5.43
2023-02-15T12:09:17.587Z,5.13
2023-02-15T12:11:44.277Z,5.68
2023-02-15T12:14:13.005Z,5.50
2023-02-15T12:16:50.355Z,6.20
2023-02-15T12:19:37.776Z,5.47
2023-02-15T12:22:08.661Z,5.60
2023-02-15T12:24:39.549Z,7.22
2023-02-15T12:27:16.206Z,6.80
2023-02-15T12:29:46.870Z,6.82
2023-02-15T12:32:25.484Z,6.50
2023-02-15T12:35:15.596Z,6.28
2023-02-15T12:37:54.714Z,6.10
2023-02-15T12:40:24.783Z,5.65
2023-02-15T12:42:51.407Z,6.35
2023-02-15T12:45:44.685Z,5.80
2023-02-15T12:48:14.947Z,6.00
2023-02-15T12:50:43.158Z,6.72
2023-02-15T12:53:26.038Z,5.53
2023-02-15T12:55:58.576Z,6.68
2023-02-15T12:58:31.246Z,6.00
2023-02-15T13:01:12.059Z,5.93
2023-02-15T13:04:05.736Z,5.85
2023-02-15T13:06:36.072Z,5.85
2023-02-15T13:09:40.805Z,6.40
2023-02-15T13:12:24.419Z,6.70
2023-02-15T13:14:53.474Z,6.68
2023-02-15T13:17:27.880Z,6.55
2023-02-15T13:19:57.399Z,6.40
2023-02-15T13:22:37.296Z,6.57
2023-02-15T13:25:35.127Z,6.50
2023-02-15T13:28:04.227Z,6.32
2023-02-15T13:30:37.795Z,7.50
2023-02-15T13:33:07.562Z,5.78
2023-02-15T13:36:02.924Z,5.85
2023-02-15T13:38:51.473Z,6.43
2023-02-15T13:41:27.819Z,6.25
2023-02-15T13:44:00.393Z,6.75
2023-02-15T13:46:52.962Z,6.47
2023-02-15T13:49:33.481Z,6.63
2023-02-15T13:52:22.151Z,6.10
2023-02-15T13:55:09.226Z,6.97
2023-02-15T13:57:50.920Z,6.97
2023-02-15T14:00:52.555Z,6.88
2023-02-15T14:03:48.977Z,6.28
2023-02-15T14:06:36.677Z,7.00
2023-02-15T14:09:30.214Z,6.50
2023-02-15T14:12:25.571Z,6.82
2023-02-15T14:15:24.204Z,6.70
2023-02-15T14:18:17.222Z,7.03
2023-02-15T14:21:17.477Z,7.13
2023-02-15T14:23:57.829Z,6.80
2023-02-15T14:26:32.738Z,7.38
2023-02-15T14:29:31.462Z,6.88
2023-02-15T14:32:05.072Z,5.95
2023-02-15T14:34:52.351Z,6.67
2023-02-15T14:37:30.129Z,6.72
2023-02-15T14:40:18.256Z,6.90
2023-02-15T14:42:55.851Z,7.22
2023-02-15T14:45:43.809Z,6.53
2023-02-15T14:48:16.926Z,7.00
2023-02-15T14:50:46.948Z,8.23
2023-02-15T14:53:17.686Z,6.97
2023-02-15T14:55:44.534Z,7.13
2023-02-15T14:58:14.825Z,7.07
2023-02-15T15:00:43.707Z,7.30
2023-02-15T15:03:23.973Z,7.55
2023-02-15T15:05:56.482Z,7.47
2023-02-15T15:08:38.228Z,6.88
2023-02-15T15:11:42.478Z,6.50
2023-02-15T15:14:11.731Z,5.90
2023-02-15T15:16:38.493Z,6.45
2023-02-15T15:19:10.318Z,5.53
2023-02-15T15:21:49.146Z,5.28
2023-02-15T15:24:37.670Z,5.80
2023-02-15T15:27:58.444Z,7.20
2023-02-15T15:30:25.088Z,6.32
2023-02-15T15:33:03.143Z,5.80
2023-02-15T15:35:54.769Z,6.18
2023-02-15T15:39:06.982Z,7.68
2023-02-15T15:41:43.808Z,7.20
2023-02-15T15:44:47.898Z,6.47
2023-02-15T15:47:35.976Z,7.13
2023-02-15T15:50:13.413Z,8.18
2023-02-15T15:52:45.541Z,7.05
2023-02-15T15:55:19.394Z,6.20
2023-02-15T15:57:51.129Z,6.35
2023-02-15T16:00:42.230Z,5.93
2023-02-15T16:03:23.753Z,7.00
2023-02-15T16:05:56.457Z,8.15
2023-02-15T16:08:37.498Z,9.10
2023-02-15T16:11:30.835Z,7.10
2023-02-15T16:13:57.598Z,6.68
2023-02-15T16:16:30.092Z,8.32
2023-02-15T16:19:00.890Z,7.13
2023-02-15T16:21:32.966Z,6.50
2023-02-15T16:24:37.513Z,6.10
2023-02-15T16:27:20.660Z,7.90
2023-02-15T16:29:47.499Z,7.95
2023-02-15T16:32:24.247Z,7.68
2023-02-15T16:35:01.706Z,6.23
2023-02-15T16:37:33.972Z,7.10
2023-02-15T16:40:01.434Z,6.55
2023-02-15T16:42:28.316Z,7.20
2023-02-15T16:45:14.934Z,7.57
2023-02-15T16:47:45.768Z,7.23
2023-02-15T16:50:35.601Z,7.70
2023-02-15T16:53:04.867Z,8.35
2023-02-15T16:55:43.004Z,7.25
2023-02-15T16:58:16.588Z,6.97
2023-02-15T17:00:43.594Z,6.80
2023-02-15T17:03:12.919Z,6.25
2023-02-15T17:05:45.473Z,8.35
2023-02-15T17:08:26.059Z,7.20
2023-02-15T17:11:18.764Z,8.23
2023-02-15T17:14:09.647Z,8.67
2023-02-15T17:16:51.042Z,8.38
2023-02-15T17:19:25.475Z,9.43
2023-02-15T17:21:55.940Z,9.32
2023-02-15T17:24:37.415Z,10.45
2023-02-15T17:27:22.129Z,7.07
2023-02-15T17:30:01.927Z,8.05
2023-02-15T17:32:32.470Z,10.50
2023-02-15T17:35:04.925Z,9.85
2023-02-15T17:37:37.572Z,12.23
2023-02-15T17:40:21.722Z,10.70
2023-02-15T17:42:48.672Z,8.50
2023-02-15T17:45:16.036Z,8.68
2023-02-15T17:47:43.182Z,7.95
2023-02-15T17:50:19.734Z,9.00
2023-02-15T17:52:46.499Z,7.63
2023-02-15T17:55:37.492Z,7.63
2023-02-15T17:58:09.509Z,8.20
2023-02-15T18:01:00.195Z,8.13
2023-02-15T18:03:57.157Z,8.80
2023-02-15T18:06:42.342Z,8.73
2023-02-15T18:09:36.049Z,8.75
2023-02-15T18:12:15.316Z,9.88
2023-02-15T18:14:41.954Z,9.00
2023-02-15T18:17:12.014Z,8.23
2023-02-15T18:19:39.596Z,8.33
2023-02-15T18:22:15.482Z,8.65
2023-02-15T18:24:42.513Z,10.20
2023-02-15T18:27:12.766Z,7.97
2023-02-15T18:29:39.860Z,8.23
2023-02-15T18:32:10.226Z,8.50
2023-02-15T18:34:40.008Z,9.05
2023-02-15T18:37:11.289Z,9.13
2023-02-15T18:39:40.691Z,7.55
2023-02-15T18:42:19.575Z,8.90
2023-02-15T18:44:46.368Z,8.87
2023-02-15T18:47:13.009Z,8.02
2023-02-15T18:49:39.689Z,7.90
2023-02-15T18:52:06.298Z,7.95
2023-02-15T18:54:32.956Z,8.55
2023-02-15T18:57:01.498Z,9.57
2023-02-15T18:59:30.412Z,9.65
2023-02-15T19:01:57.961Z,12.32
2023-02-15T19:04:25.919Z,12.02
2023-02-15T19:06:54.008Z,11.00
2023-02-15T19:09:24.134Z,9.23
2023-02-15T19:11:53.669Z,9.00
2023-02-15T19:14:29.103Z,12.85
2023-02-15T19:16:57.310Z,10.05
2023-02-15T19:19:24.011Z,14.30
2023-02-15T19:21:51.497Z,15.37
2023-02-15T19:24:36.830Z,10.68
2023-02-15T19:27:03.587Z,10.88
2023-02-15T19:29:30.838Z,12.27
2023-02-15T19:31:58.098Z,12.52
2023-02-15T19:34:24.961Z,11.40
2023-02-15T19:36:53.846Z,16.17
2023-02-15T19:39:27.800Z,19.80
2023-02-15T19:41:55.062Z,18.23
2023-02-15T19:44:22.201Z,14.90
2023-02-15T19:46:48.923Z,13.23
2023-02-15T19:49:15.466Z,12.45
2023-02-15T19:51:42.565Z,14.55
2023-02-15T19:54:27.146Z,14.73
2023-02-15T19:56:54.337Z,14.63
2023-02-15T19:59:24.201Z,11.40
2023-02-15T20:01:51.374Z,14.25
2023-02-15T20:04:18.555Z,11.93
2023-02-15T20:06:47.128Z,12.18
2023-02-15T20:09:24.085Z,10.77
2023-02-15T20:11:54.227Z,13.87
2023-02-15T20:14:21.840Z,13.65
2023-02-15T20:16:48.836Z,13.23
2023-02-15T20:19:16.175Z,12.73
2023-02-15T20:21:44.758Z,16.45
2023-02-15T20:24:17.789Z,13.10
2023-02-15T20:26:44.461Z,13.20
2023-02-15T20:29:15.714Z,11.82
2023-02-15T20:31:43.091Z,12.73
2023-02-15T20:34:10.565Z,13.25
2023-02-15T20:36:38.761Z,18.37
2023-02-15T20:39:14.269Z,14.30
2023-02-15T20:41:47.030Z,13.70
2023-02-15T20:44:26.656Z,22.73
2023-02-15T20:46:55.754Z,17.60
2023-02-15T20:49:27.235Z,15.00
2023-02-15T20:51:56.085Z,16.23
2023-02-15T20:54:24.934Z,15.02
2023-02-15T20:56:54.077Z,15.57
2023-02-15T20:59:30.620Z,16.30
2023-02-15T21:02:10.796Z,17.13
2023-02-15T21:04:37.463Z,15.13
2023-02-15T21:07:06.191Z,13.73
2023-02-15T21:09:32.801Z,14.05
2023-02-15T21:12:02.232Z,16.58
2023-02-15T21:14:29.245Z,19.10
2023-02-15T21:16:55.913Z,20.60
2023-02-15T21:19:24.452Z,15.45
2023-02-15T21:21:53.405Z,18.85
2023-02-15T21:24:26.529Z,18.48
2023-02-15T21:26:54.963Z,13.43
2023-02-15T21:29:25.745Z,15.07
2023-02-15T21:31:53.081Z,16.02
2023-02-15T21:34:20.263Z,17.33
2023-02-15T21:36:48.688Z,14.90
2023-02-15T21:39:19.833Z,15.03
2023-02-15T21:42:07.178Z,16.30
2023-02-15T21:44:52.592Z,19.67
2023-02-15T21:47:48.878Z,14.43
2023-02-15T21:50:37.020Z,15.40
2023-02-15T21:53:06.183Z,15.80
2023-02-15T21:55:33.033Z,17.30
2023-02-15T21:58:00.858Z,20.63
2023-02-15T22:00:29.737Z,19.38
2023-02-15T22:02:59.472Z,15.43
2023-02-15T22:05:34.468Z,15.93
2023-02-15T22:08:01.623Z,21.38
2023-02-15T22:10:32.959Z,20.75
2023-02-15T22:13:01.548Z,21.75
2023-02-15T22:15:34.150Z,16.92
2023-02-15T22:18:00.756Z,13.37
2023-02-15T22:20:27.464Z,14.63
2023-02-15T22:22:54.151Z,15.55
2023-02-15T22:25:23.813Z,15.02
2023-02-15T22:27:53.158Z,12.25
2023-02-15T22:30:31.815Z,13.40
2023-02-15T22:33:00.090Z,18.63
2023-02-15T22:35:32.707Z,13.45
2023-02-15T22:38:00.574Z,13.30
2023-02-15T22:40:33.899Z,13.02
2023-02-15T22:43:03.709Z,13.07
2023-02-15T22:45:32.724Z,11.75
2023-02-15T22:48:00.541Z,9.73
2023-02-15T22:50:30.157Z,10.98
2023-02-15T22:52:57.095Z,11.48
2023-02-15T22:55:26.569Z,13.77
2023-02-15T22:57:55.572Z,12.18
2023-02-15T23:00:28.793Z,11.27
2023-02-15T23:02:55.740Z,11.75
2023-02-15T23:05:27.824Z,13.35
2023-02-15T23:07:55.282Z,12.60
2023-02-15T23:10:24.653Z,10.60
2023-02-15T23:13:13.508Z,11.02
2023-02-15T23:15:41.647Z,10.77
2023-02-15T23:18:27.109Z,11.43
2023-02-15T23:21:11.330Z,11.23
2023-02-15T23:23:40.517Z,13.05
2023-02-15T23:26:16.729Z,13.50
2023-02-15T23:28:44.628Z,12.77
2023-02-15T23:31:30.354Z,15.20
2023-02-15T23:33:58.364Z,19.03
2023-02-15T23:36:27.918Z,12.48
2023-02-15T23:38:56.471Z,13.45
2023-02-15T23:41:27.201Z,13.25
2023-02-15T23:43:57.198Z,11.85
2023-02-15T23:46:39.824Z,11.57
2023-02-15T23:49:14.936Z,10.63
2023-02-15T23:51:53.763Z,12.02
2023-02-15T23:54:23.683Z,11.93
2023-02-15T23:56:54.085Z,10.98
2023-02-15T23:59:25.040Z,10.07
